sensor_id;sensor_type;location;lat;lon;timestamp;P1;durP1;ratioP1;P2;durP2;ratioP2
22421;SDS011;11378;51.642;7.668;2022-12-24T00:00:37;2.30;;;1.75;;
22421;SDS011;11378;51.642;7.668;2022-12-24T00:03:03;3.58;;;2.17;;
22421;SDS011;11378;51.642;7.668;2022-12-24T00:05:30;3.20;;;2.20;;
22421;SDS011;11378;51.642;7.668;2022-12-24T00:07:56;2.78;;;1.80;;
22421;SDS011;11378;51.642;7.668;2022-12-24T00:10:22;4.60;;;2.03;;
22421;SDS011;11378;51.642;7.668;2022-12-24T00:12:49;2.65;;;1.65;;
22421;SDS011;11378;51.642;7.668;2022-12-24T00:15:15;2.35;;;1.90;;
22421;SDS011;11378;51.642;7.668;2022-12-24T00:17:42;3.33;;;2.03;;
22421;SDS011;11378;51.642;7.668;2022-12-24T00:20:08;1.90;;;1.70;;
22421;SDS011;11378;51.642;7.668;2022-12-24T00:22:35;3.63;;;2.22;;
22421;SDS011;11378;51.642;7.668;2022-12-24T00:25:01;2.95;;;1.80;;
22421;SDS011;11378;51.642;7.668;2022-12-24T00:27:28;4.43;;;2.15;;
22421;SDS011;11378;51.642;7.668;2022-12-24T00:29:54;2.55;;;1.92;;
22421;SDS011;11378;51.642;7.668;2022-12-24T00:32:20;3.00;;;1.77;;
22421;SDS011;11378;51.642;7.668;2022-12-24T00:34:47;3.15;;;1.80;;
22421;SDS011;11378;51.642;7.668;2022-12-24T00:37:13;2.65;;;2.00;;
22421;SDS011;11378;51.642;7.668;2022-12-24T00:39:40;2.22;;;1.75;;
22421;SDS011;11378;51.642;7.668;2022-12-24T00:42:06;5.65;;;3.10;;
22421;SDS011;11378;51.642;7.668;2022-12-24T00:44:32;2.60;;;2.10;;
22421;SDS011;11378;51.642;7.668;2022-12-24T00:46:59;2.78;;;2.08;;
22421;SDS011;11378;51.642;7.668;2022-12-24T00:49:25;2.85;;;1.80;;
22421;SDS011;11378;51.642;7.668;2022-12-24T00:51:51;3.22;;;1.92;;
22421;SDS011;11378;51.642;7.668;2022-12-24T00:54:18;2.10;;;1.77;;
22421;SDS011;11378;51.642;7.668;2022-12-24T00:56:44;4.45;;;2.03;;
22421;SDS011;11378;51.642;7.668;2022-12-24T00:59:11;3.35;;;2.10;;
22421;SDS011;11378;51.642;7.668;2022-12-24T01:01:37;2.58;;;1.90;;
22421;SDS011;11378;51.642;7.668;2022-12-24T01:04:03;3.47;;;1.98;;
22421;SDS011;11378;51.642;7.668;2022-12-24T01:06:48;2.88;;;2.13;;
22421;SDS011;11378;51.642;7.668;2022-12-24T01:09:14;3.95;;;1.85;;
22421;SDS011;11378;51.642;7.668;2022-12-24T01:11:41;2.85;;;1.70;;
22421;SDS011;11378;51.642;7.668;2022-12-24T01:14:07;2.78;;;1.80;;
22421;SDS011;11378;51.642;7.668;2022-12-24T01:16:33;5.65;;;2.17;;
22421;SDS011;11378;51.642;7.668;2022-12-24T01:19:00;2.70;;;1.70;;
22421;SDS011;11378;51.642;7.668;2022-12-24T01:21:26;3.63;;;1.95;;
22421;SDS011;11378;51.642;7.668;2022-12-24T01:23:53;3.40;;;2.10;;
22421;SDS011;11378;51.642;7.668;2022-12-24T01:26:19;3.00;;;1.80;;
22421;SDS011;11378;51.642;7.668;2022-12-24T01:28:45;2.55;;;1.60;;
22421;SDS011;11378;51.642;7.668;2022-12-24T01:31:15;2.72;;;2.00;;
22421;SDS011;11378;51.642;7.668;2022-12-24T01:36:09;2.65;;;1.85;;
22421;SDS011;11378;51.642;7.668;2022-12-24T01:38:35;2.58;;;1.63;;
22421;SDS011;11378;51.642;7.668;2022-12-24T01:41:01;3.38;;;1.92;;
22421;SDS011;11378;51.642;7.668;2022-12-24T01:43:46;4.18;;;2.20;;
22421;SDS011;11378;51.642;7.668;2022-12-24T01:46:17;3.28;;;1.98;;
22421;SDS011;11378;51.642;7.668;2022-12-24T01:48:52;2.92;;;1.83;;
22421;SDS011;11378;51.642;7.668;2022-12-24T01:51:28;4.28;;;2.05;;
22421;SDS011;11378;51.642;7.668;2022-12-24T01:53:56;3.20;;;1.83;;
22421;SDS011;11378;51.642;7.668;2022-12-24T01:56:23;2.55;;;1.65;;
22421;SDS011;11378;51.642;7.668;2022-12-24T01:58:53;4.90;;;1.98;;
22421;SDS011;11378;51.642;7.668;2022-12-24T02:01:21;3.15;;;1.70;;
22421;SDS011;11378;51.642;7.668;2022-12-24T02:03:47;2.28;;;1.70;;
22421;SDS011;11378;51.642;7.668;2022-12-24T02:06:14;3.15;;;1.70;;
22421;SDS011;11378;51.642;7.668;2022-12-24T02:08:41;2.10;;;1.65;;
22421;SDS011;11378;51.642;7.668;2022-12-24T02:11:18;3.38;;;1.95;;
22421;SDS011;11378;51.642;7.668;2022-12-24T02:13:54;2.75;;;2.00;;
22421;SDS011;11378;51.642;7.668;2022-12-24T02:24:01;3.20;;;1.60;;
22421;SDS011;11378;51.642;7.668;2022-12-24T02:32:01;2.97;;;1.77;;
22421;SDS011;11378;51.642;7.668;2022-12-24T02:34:39;2.97;;;1.67;;
22421;SDS011;11378;51.642;7.668;2022-12-24T02:37:16;2.17;;;1.60;;
22421;SDS011;11378;51.642;7.668;2022-12-24T02:39:46;2.05;;;1.50;;
22421;SDS011;11378;51.642;7.668;2022-12-24T02:42:14;2.70;;;1.83;;
22421;SDS011;11378;51.642;7.668;2022-12-24T02:44:56;2.75;;;1.80;;
22421;SDS011;11378;51.642;7.668;2022-12-24T02:47:25;2.83;;;1.85;;
22421;SDS011;11378;51.642;7.668;2022-12-24T02:49:52;2.60;;;1.70;;
22421;SDS011;11378;51.642;7.668;2022-12-24T02:52:35;3.38;;;1.80;;
22421;SDS011;11378;51.642;7.668;2022-12-24T02:55:11;3.08;;;1.67;;
22421;SDS011;11378;51.642;7.668;2022-12-24T03:00:15;3.50;;;1.90;;
22421;SDS011;11378;51.642;7.668;2022-12-24T03:07:56;4.03;;;1.98;;
22421;SDS011;11378;51.642;7.668;2022-12-24T03:10:30;4.97;;;1.92;;
22421;SDS011;11378;51.642;7.668;2022-12-24T03:12:59;1.98;;;1.52;;
22421;SDS011;11378;51.642;7.668;2022-12-24T03:15:27;3.30;;;1.77;;
22421;SDS011;11378;51.642;7.668;2022-12-24T03:17:56;4.60;;;2.25;;
22421;SDS011;11378;51.642;7.668;2022-12-24T03:20:29;4.03;;;2.00;;
22421;SDS011;11378;51.642;7.668;2022-12-24T03:22:56;3.17;;;1.70;;
22421;SDS011;11378;51.642;7.668;2022-12-24T03:25:23;2.72;;;1.83;;
22421;SDS011;11378;51.642;7.668;2022-12-24T03:27:50;2.63;;;1.70;;
22421;SDS011;11378;51.642;7.668;2022-12-24T03:30:17;3.13;;;1.77;;
22421;SDS011;11378;51.642;7.668;2022-12-24T03:32:43;3.72;;;1.80;;
22421;SDS011;11378;51.642;7.668;2022-12-24T03:35:11;3.42;;;1.75;;
22421;SDS011;11378;51.642;7.668;2022-12-24T03:37:37;2.92;;;1.90;;
22421;SDS011;11378;51.642;7.668;2022-12-24T03:40:04;4.60;;;2.00;;
22421;SDS011;11378;51.642;7.668;2022-12-24T03:42:30;4.95;;;2.00;;
22421;SDS011;11378;51.642;7.668;2022-12-24T03:44:58;3.05;;;1.90;;
22421;SDS011;11378;51.642;7.668;2022-12-24T03:47:24;3.78;;;1.92;;
22421;SDS011;11378;51.642;7.668;2022-12-24T03:49:51;3.38;;;2.17;;
22421;SDS011;11378;51.642;7.668;2022-12-24T03:52:17;3.47;;;2.05;;
22421;SDS011;11378;51.642;7.668;2022-12-24T03:54:43;3.33;;;1.90;;
22421;SDS011;11378;51.642;7.668;2022-12-24T03:57:09;4.20;;;2.20;;
22421;SDS011;11378;51.642;7.668;2022-12-24T03:59:36;3.58;;;1.63;;
22421;SDS011;11378;51.642;7.668;2022-12-24T04:02:02;3.08;;;2.00;;
22421;SDS011;11378;51.642;7.668;2022-12-24T04:04:28;2.38;;;1.77;;
22421;SDS011;11378;51.642;7.668;2022-12-24T04:06:56;2.45;;;1.65;;
22421;SDS011;11378;51.642;7.668;2022-12-24T04:09:23;4.90;;;1.85;;
22421;SDS011;11378;51.642;7.668;2022-12-24T04:11:49;3.45;;;1.90;;
22421;SDS011;11378;51.642;7.668;2022-12-24T04:14:15;3.65;;;1.90;;
22421;SDS011;11378;51.642;7.668;2022-12-24T04:16:42;2.10;;;1.90;;
22421;SDS011;11378;51.642;7.668;2022-12-24T04:19:08;4.55;;;2.00;;
22421;SDS011;11378;51.642;7.668;2022-12-24T04:21:34;2.58;;;1.80;;
22421;SDS011;11378;51.642;7.668;2022-12-24T04:24:01;3.78;;;2.08;;
22421;SDS011;11378;51.642;7.668;2022-12-24T04:26:27;3.38;;;1.90;;
22421;SDS011;11378;51.642;7.668;2022-12-24T04:28:54;3.58;;;1.80;;
22421;SDS011;11378;51.642;7.668;2022-12-24T04:31:20;6.45;;;2.13;;
22421;SDS011;11378;51.642;7.668;2022-12-24T04:33:46;4.90;;;1.98;;
22421;SDS011;11378;51.642;7.668;2022-12-24T04:36:14;2.63;;;1.83;;
22421;SDS011;11378;51.642;7.668;2022-12-24T04:38:44;3.97;;;2.05;;
22421;SDS011;11378;51.642;7.668;2022-12-24T04:41:16;2.97;;;1.90;;
22421;SDS011;11378;51.642;7.668;2022-12-24T04:43:42;3.30;;;1.90;;
22421;SDS011;11378;51.642;7.668;2022-12-24T04:46:10;3.92;;;2.00;;
22421;SDS011;11378;51.642;7.668;2022-12-24T04:48:39;5.45;;;2.00;;
22421;SDS011;11378;51.642;7.668;2022-12-24T04:51:06;4.32;;;1.98;;
22421;SDS011;11378;51.642;7.668;2022-12-24T04:53:33;4.28;;;1.90;;
22421;SDS011;11378;51.642;7.668;2022-12-24T04:56:00;2.47;;;1.67;;
22421;SDS011;11378;51.642;7.668;2022-12-24T04:58:26;3.55;;;2.05;;
22421;SDS011;11378;51.642;7.668;2022-12-24T05:00:53;3.58;;;2.03;;
22421;SDS011;11378;51.642;7.668;2022-12-24T05:03:19;3.15;;;2.00;;
22421;SDS011;11378;51.642;7.668;2022-12-24T05:05:46;2.95;;;1.73;;
22421;SDS011;11378;51.642;7.668;2022-12-24T05:08:12;3.60;;;1.85;;
22421;SDS011;11378;51.642;7.668;2022-12-24T05:10:39;3.42;;;1.95;;
22421;SDS011;11378;51.642;7.668;2022-12-24T05:13:05;2.90;;;1.65;;
22421;SDS011;11378;51.642;7.668;2022-12-24T05:15:32;2.97;;;2.10;;
22421;SDS011;11378;51.642;7.668;2022-12-24T05:17:58;3.35;;;1.88;;
22421;SDS011;11378;51.642;7.668;2022-12-24T05:20:24;3.42;;;1.70;;
22421;SDS011;11378;51.642;7.668;2022-12-24T05:22:51;3.90;;;2.03;;
22421;SDS011;11378;51.642;7.668;2022-12-24T05:25:37;4.60;;;1.75;;
22421;SDS011;11378;51.642;7.668;2022-12-24T05:28:23;3.90;;;1.70;;
22421;SDS011;11378;51.642;7.668;2022-12-24T05:30:49;2.90;;;2.00;;
22421;SDS011;11378;51.642;7.668;2022-12-24T05:33:16;2.15;;;1.63;;
22421;SDS011;11378;51.642;7.668;2022-12-24T05:35:42;2.75;;;1.75;;
22421;SDS011;11378;51.642;7.668;2022-12-24T05:38:09;4.43;;;2.10;;
22421;SDS011;11378;51.642;7.668;2022-12-24T05:40:35;3.60;;;1.75;;
22421;SDS011;11378;51.642;7.668;2022-12-24T05:43:02;2.33;;;1.77;;
22421;SDS011;11378;51.642;7.668;2022-12-24T05:45:28;2.75;;;1.90;;
22421;SDS011;11378;51.642;7.668;2022-12-24T05:47:54;2.20;;;1.73;;
22421;SDS011;11378;51.642;7.668;2022-12-24T05:50:21;2.92;;;1.73;;
22421;SDS011;11378;51.642;7.668;2022-12-24T05:52:47;2.75;;;1.65;;
22421;SDS011;11378;51.642;7.668;2022-12-24T05:55:13;4.22;;;1.70;;
22421;SDS011;11378;51.642;7.668;2022-12-24T05:57:39;2.90;;;1.98;;
22421;SDS011;11378;51.642;7.668;2022-12-24T06:00:06;3.72;;;1.80;;
22421;SDS011;11378;51.642;7.668;2022-12-24T06:02:37;3.58;;;1.80;;
22421;SDS011;11378;51.642;7.668;2022-12-24T06:05:03;4.10;;;1.92;;
22421;SDS011;11378;51.642;7.668;2022-12-24T06:07:30;4.47;;;2.03;;
22421;SDS011;11378;51.642;7.668;2022-12-24T06:09:56;3.70;;;2.10;;
22421;SDS011;11378;51.642;7.668;2022-12-24T06:12:22;2.35;;;1.80;;
22421;SDS011;11378;51.642;7.668;2022-12-24T06:14:48;2.67;;;1.85;;
22421;SDS011;11378;51.642;7.668;2022-12-24T06:17:15;3.28;;;1.70;;
22421;SDS011;11378;51.642;7.668;2022-12-24T06:19:41;2.60;;;1.73;;
22421;SDS011;11378;51.642;7.668;2022-12-24T06:22:08;4.25;;;1.80;;
22421;SDS011;11378;51.642;7.668;2022-12-24T06:24:35;3.50;;;1.80;;
22421;SDS011;11378;51.642;7.668;2022-12-24T06:27:01;3.67;;;1.90;;
22421;SDS011;11378;51.642;7.668;2022-12-24T06:29:27;4.47;;;1.92;;
22421;SDS011;11378;51.642;7.668;2022-12-24T06:31:54;3.97;;;2.10;;
22421;SDS011;11378;51.642;7.668;2022-12-24T06:34:20;2.47;;;1.50;;
22421;SDS011;11378;51.642;7.668;2022-12-24T06:36:46;4.10;;;1.88;;
22421;SDS011;11378;51.642;7.668;2022-12-24T06:39:13;5.38;;;1.90;;
22421;SDS011;11378;51.642;7.668;2022-12-24T06:41:39;3.22;;;2.10;;
22421;SDS011;11378;51.642;7.668;2022-12-24T06:44:06;2.15;;;1.73;;
22421;SDS011;11378;51.642;7.668;2022-12-24T06:46:32;2.78;;;1.50;;
22421;SDS011;11378;51.642;7.668;2022-12-24T06:48:58;3.20;;;1.90;;
22421;SDS011;11378;51.642;7.668;2022-12-24T06:51:24;2.00;;;1.58;;
22421;SDS011;11378;51.642;7.668;2022-12-24T06:53:51;4.07;;;2.00;;
22421;SDS011;11378;51.642;7.668;2022-12-24T06:56:18;2.83;;;1.83;;
22421;SDS011;11378;51.642;7.668;2022-12-24T06:58:44;2.80;;;1.80;;
22421;SDS011;11378;51.642;7.668;2022-12-24T07:01:11;2.25;;;1.70;;
22421;SDS011;11378;51.642;7.668;2022-12-24T07:03:37;3.47;;;1.45;;
22421;SDS011;11378;51.642;7.668;2022-12-24T07:06:04;2.75;;;1.83;;
22421;SDS011;11378;51.642;7.668;2022-12-24T07:08:31;2.95;;;1.65;;
22421;SDS011;11378;51.642;7.668;2022-12-24T07:11:00;4.75;;;2.08;;
22421;SDS011;11378;51.642;7.668;2022-12-24T07:13:27;2.17;;;1.80;;
22421;SDS011;11378;51.642;7.668;2022-12-24T07:15:57;3.22;;;1.67;;
22421;SDS011;11378;51.642;7.668;2022-12-24T07:18:23;2.97;;;1.75;;
22421;SDS011;11378;51.642;7.668;2022-12-24T07:20:49;1.95;;;1.50;;
22421;SDS011;11378;51.642;7.668;2022-12-24T07:23:16;5.80;;;2.30;;
22421;SDS011;11378;51.642;7.668;2022-12-24T07:25:42;3.05;;;1.73;;
22421;SDS011;11378;51.642;7.668;2022-12-24T07:28:08;3.40;;;1.83;;
22421;SDS011;11378;51.642;7.668;2022-12-24T07:30:35;2.97;;;1.80;;
22421;SDS011;11378;51.642;7.668;2022-12-24T07:33:01;2.28;;;1.80;;
22421;SDS011;11378;51.642;7.668;2022-12-24T07:35:28;3.05;;;1.77;;
22421;SDS011;11378;51.642;7.668;2022-12-24T07:37:54;3.72;;;1.70;;
22421;SDS011;11378;51.642;7.668;2022-12-24T07:40:20;2.22;;;1.80;;
22421;SDS011;11378;51.642;7.668;2022-12-24T07:42:46;2.30;;;1.65;;
22421;SDS011;11378;51.642;7.668;2022-12-24T07:45:13;3.30;;;1.90;;
22421;SDS011;11378;51.642;7.668;2022-12-24T07:47:39;2.17;;;1.48;;
22421;SDS011;11378;51.642;7.668;2022-12-24T07:50:06;2.85;;;1.80;;
22421;SDS011;11378;51.642;7.668;2022-12-24T07:52:32;3.13;;;1.90;;
22421;SDS011;11378;51.642;7.668;2022-12-24T07:54:58;1.63;;;1.42;;
22421;SDS011;11378;51.642;7.668;2022-12-24T07:57:24;3.05;;;1.85;;
22421;SDS011;11378;51.642;7.668;2022-12-24T07:59:51;2.88;;;2.15;;
22421;SDS011;11378;51.642;7.668;2022-12-24T08:02:17;4.82;;;2.00;;
22421;SDS011;11378;51.642;7.668;2022-12-24T08:04:44;4.10;;;1.60;;
22421;SDS011;11378;51.642;7.668;2022-12-24T08:07:10;3.75;;;1.83;;
22421;SDS011;11378;51.642;7.668;2022-12-24T08:09:36;4.10;;;1.58;;
22421;SDS011;11378;51.642;7.668;2022-12-24T08:12:03;2.15;;;1.80;;
22421;SDS011;11378;51.642;7.668;2022-12-24T08:14:30;3.70;;;1.55;;
22421;SDS011;11378;51.642;7.668;2022-12-24T08:16:56;2.67;;;1.85;;
22421;SDS011;11378;51.642;7.668;2022-12-24T08:19:23;1.98;;;1.77;;
22421;SDS011;11378;51.642;7.668;2022-12-24T08:21:49;2.47;;;1.70;;
22421;SDS011;11378;51.642;7.668;2022-12-24T08:24:16;3.53;;;1.77;;
22421;SDS011;11378;51.642;7.668;2022-12-24T08:26:42;3.25;;;1.85;;
22421;SDS011;11378;51.642;7.668;2022-12-24T08:29:08;2.83;;;1.98;;
22421;SDS011;11378;51.642;7.668;2022-12-24T08:31:34;3.97;;;1.90;;
22421;SDS011;11378;51.642;7.668;2022-12-24T08:34:03;3.50;;;1.80;;
22421;SDS011;11378;51.642;7.668;2022-12-24T08:36:29;3.42;;;1.95;;
22421;SDS011;11378;51.642;7.668;2022-12-24T08:38:55;3.20;;;1.75;;
22421;SDS011;11378;51.642;7.668;2022-12-24T08:41:22;3.85;;;1.88;;
22421;SDS011;11378;51.642;7.668;2022-12-24T08:43:48;4.00;;;1.80;;
22421;SDS011;11378;51.642;7.668;2022-12-24T08:46:14;4.75;;;2.10;;
22421;SDS011;11378;51.642;7.668;2022-12-24T08:48:40;3.75;;;1.70;;
22421;SDS011;11378;51.642;7.668;2022-12-24T08:51:09;3.13;;;1.90;;
22421;SDS011;11378;51.642;7.668;2022-12-24T08:53:36;3.03;;;1.67;;
22421;SDS011;11378;51.642;7.668;2022-12-24T08:56:04;4.07;;;2.03;;
22421;SDS011;11378;51.642;7.668;2022-12-24T08:58:30;4.28;;;1.95;;
22421;SDS011;11378;51.642;7.668;2022-12-24T09:00:57;5.78;;;2.30;;
22421;SDS011;11378;51.642;7.668;2022-12-24T09:03:24;3.28;;;1.70;;
22421;SDS011;11378;51.642;7.668;2022-12-24T09:05:50;3.90;;;2.13;;
22421;SDS011;11378;51.642;7.668;2022-12-24T09:08:18;3.25;;;2.13;;
22421;SDS011;11378;51.642;7.668;2022-12-24T09:10:44;3.17;;;1.52;;
22421;SDS011;11378;51.642;7.668;2022-12-24T09:13:10;2.50;;;1.60;;
22421;SDS011;11378;51.642;7.668;2022-12-24T09:15:36;3.05;;;2.00;;
22421;SDS011;11378;51.642;7.668;2022-12-24T09:18:03;4.45;;;2.03;;
22421;SDS011;11378;51.642;7.668;2022-12-24T09:20:29;2.33;;;1.67;;
22421;SDS011;11378;51.642;7.668;2022-12-24T09:22:55;4.53;;;1.98;;
22421;SDS011;11378;51.642;7.668;2022-12-24T09:25:22;3.28;;;2.00;;
22421;SDS011;11378;51.642;7.668;2022-12-24T09:27:48;2.60;;;1.83;;
22421;SDS011;11378;51.642;7.668;2022-12-24T09:30:14;3.13;;;2.00;;
22421;SDS011;11378;51.642;7.668;2022-12-24T09:32:41;3.42;;;1.90;;
22421;SDS011;11378;51.642;7.668;2022-12-24T09:35:07;3.42;;;1.90;;
22421;SDS011;11378;51.642;7.668;2022-12-24T09:37:34;2.47;;;1.70;;
22421;SDS011;11378;51.642;7.668;2022-12-24T09:40:00;3.13;;;1.98;;
22421;SDS011;11378;51.642;7.668;2022-12-24T09:47:28;2.33;;;1.63;;
22421;SDS011;11378;51.642;7.668;2022-12-24T09:49:55;4.80;;;2.10;;
22421;SDS011;11378;51.642;7.668;2022-12-24T09:52:26;2.83;;;1.80;;
22421;SDS011;11378;51.642;7.668;2022-12-24T09:55:18;3.17;;;2.13;;
22421;SDS011;11378;51.642;7.668;2022-12-24T09:57:40;4.18;;;2.30;;
22421;SDS011;11378;51.642;7.668;2022-12-24T10:00:15;3.50;;;1.88;;
22421;SDS011;11378;51.642;7.668;2022-12-24T10:02:43;3.45;;;2.05;;
22421;SDS011;11378;51.642;7.668;2022-12-24T10:05:12;5.55;;;2.20;;
22421;SDS011;11378;51.642;7.668;2022-12-24T10:07:47;3.25;;;1.75;;
22421;SDS011;11378;51.642;7.668;2022-12-24T10:10:26;2.75;;;1.90;;
22421;SDS011;11378;51.642;7.668;2022-12-24T10:15:27;3.85;;;2.08;;
22421;SDS011;11378;51.642;7.668;2022-12-24T10:18:06;2.20;;;1.73;;
22421;SDS011;11378;51.642;7.668;2022-12-24T10:28:12;4.13;;;1.30;;
22421;SDS011;11378;51.642;7.668;2022-12-24T10:30:39;3.17;;;1.92;;
22421;SDS011;11378;51.642;7.668;2022-12-24T10:33:13;3.03;;;2.00;;
22421;SDS011;11378;51.642;7.668;2022-12-24T10:35:42;3.85;;;1.90;;
22421;SDS011;11378;51.642;7.668;2022-12-24T10:38:10;4.35;;;2.15;;
22421;SDS011;11378;51.642;7.668;2022-12-24T10:40:46;4.22;;;2.00;;
22421;SDS011;11378;51.642;7.668;2022-12-24T10:43:17;2.75;;;1.70;;
22421;SDS011;11378;51.642;7.668;2022-12-24T10:45:49;4.53;;;1.83;;
22421;SDS011;11378;51.642;7.668;2022-12-24T10:48:39;3.58;;;1.80;;
22421;SDS011;11378;51.642;7.668;2022-12-24T10:51:12;2.63;;;1.85;;
22421;SDS011;11378;51.642;7.668;2022-12-24T10:53:45;2.60;;;1.80;;
22421;SDS011;11378;51.642;7.668;2022-12-24T10:56:14;3.35;;;1.80;;
22421;SDS011;11378;51.642;7.668;2022-12-24T10:58:44;3.58;;;1.50;;
22421;SDS011;11378;51.642;7.668;2022-12-24T11:01:11;4.22;;;1.70;;
22421;SDS011;11378;51.642;7.668;2022-12-24T11:03:38;3.50;;;1.88;;
22421;SDS011;11378;51.642;7.668;2022-12-24T11:06:09;3.63;;;1.90;;
22421;SDS011;11378;51.642;7.668;2022-12-24T11:08:38;3.35;;;1.83;;
22421;SDS011;11378;51.642;7.668;2022-12-24T11:11:06;4.05;;;1.92;;
22421;SDS011;11378;51.642;7.668;2022-12-24T11:13:35;4.13;;;2.05;;
22421;SDS011;11378;51.642;7.668;2022-12-24T11:18:48;4.35;;;1.95;;
22421;SDS011;11378;51.642;7.668;2022-12-24T11:21:19;3.17;;;1.70;;
22421;SDS011;11378;51.642;7.668;2022-12-24T11:24:23;4.88;;;1.80;;
22421;SDS011;11378;51.642;7.668;2022-12-24T11:26:39;2.42;;;1.55;;
22421;SDS011;11378;51.642;7.668;2022-12-24T11:31:40;5.20;;;2.33;;
22421;SDS011;11378;51.642;7.668;2022-12-24T11:36:49;2.88;;;1.63;;
22421;SDS011;11378;51.642;7.668;2022-12-24T11:39:19;3.60;;;1.88;;
22421;SDS011;11378;51.642;7.668;2022-12-24T11:41:45;2.80;;;1.92;;
22421;SDS011;11378;51.642;7.668;2022-12-24T11:44:12;8.35;;;2.47;;
22421;SDS011;11378;51.642;7.668;2022-12-24T11:46:40;15.07;;;3.45;;
22421;SDS011;11378;51.642;7.668;2022-12-24T11:51:37;15.38;;;3.72;;
22421;SDS011;11378;51.642;7.668;2022-12-24T11:56:40;5.35;;;2.70;;
22421;SDS011;11378;51.642;7.668;2022-12-24T11:59:11;11.55;;;3.30;;
22421;SDS011;11378;51.642;7.668;2022-12-24T12:04:16;12.07;;;2.90;;
22421;SDS011;11378;51.642;7.668;2022-12-24T12:06:45;8.25;;;3.25;;
22421;SDS011;11378;51.642;7.668;2022-12-24T12:09:24;9.15;;;3.25;;
22421;SDS011;11378;51.642;7.668;2022-12-24T12:11:56;13.47;;;3.20;;
22421;SDS011;11378;51.642;7.668;2022-12-24T12:14:29;9.98;;;2.90;;
22421;SDS011;11378;51.642;7.668;2022-12-24T12:17:02;9.38;;;3.38;;
22421;SDS011;11378;51.642;7.668;2022-12-24T12:19:34;9.80;;;3.05;;
22421;SDS011;11378;51.642;7.668;2022-12-24T12:22:03;9.82;;;3.03;;
22421;SDS011;11378;51.642;7.668;2022-12-24T12:24:35;10.40;;;3.72;;
22421;SDS011;11378;51.642;7.668;2022-12-24T12:27:12;7.22;;;2.65;;
22421;SDS011;11378;51.642;7.668;2022-12-24T12:29:44;7.73;;;2.93;;
22421;SDS011;11378;51.642;7.668;2022-12-24T12:32:15;7.63;;;2.97;;
22421;SDS011;11378;51.642;7.668;2022-12-24T12:35:01;8.20;;;2.88;;
22421;SDS011;11378;51.642;7.668;2022-12-24T12:37:31;7.22;;;2.58;;
22421;SDS011;11378;51.642;7.668;2022-12-24T12:39:59;6.55;;;3.20;;
22421;SDS011;11378;51.642;7.668;2022-12-24T12:42:33;7.57;;;3.03;;
22421;SDS011;11378;51.642;7.668;2022-12-24T12:55:40;7.45;;;2.15;;
22421;SDS011;11378;51.642;7.668;2022-12-24T12:58:28;9.80;;;3.08;;
22421;SDS011;11378;51.642;7.668;2022-12-24T13:01:02;9.45;;;3.53;;
22421;SDS011;11378;51.642;7.668;2022-12-24T13:06:18;12.02;;;3.88;;
22421;SDS011;11378;51.642;7.668;2022-12-24T13:13:50;13.15;;;4.25;;
22421;SDS011;11378;51.642;7.668;2022-12-24T13:21:33;12.63;;;3.80;;
22421;SDS011;11378;51.642;7.668;2022-12-24T13:24:03;15.27;;;4.45;;
22421;SDS011;11378;51.642;7.668;2022-12-24T13:26:30;8.95;;;3.53;;
22421;SDS011;11378;51.642;7.668;2022-12-24T13:29:45;14.70;;;3.95;;
22421;SDS011;11378;51.642;7.668;2022-12-24T13:31:43;11.20;;;3.65;;
22421;SDS011;11378;51.642;7.668;2022-12-24T13:34:31;13.95;;;4.00;;
22421;SDS011;11378;51.642;7.668;2022-12-24T13:37:01;10.75;;;4.00;;
22421;SDS011;11378;51.642;7.668;2022-12-24T13:39:29;10.43;;;3.45;;
22421;SDS011;11378;51.642;7.668;2022-12-24T13:42:34;15.68;;;4.47;;
22421;SDS011;11378;51.642;7.668;2022-12-24T13:47:47;8.90;;;3.45;;
22421;SDS011;11378;51.642;7.668;2022-12-24T13:52:59;9.98;;;4.07;;
22421;SDS011;11378;51.642;7.668;2022-12-24T13:55:25;13.73;;;3.83;;
22421;SDS011;11378;51.642;7.668;2022-12-24T14:02:49;8.93;;;3.45;;
22421;SDS011;11378;51.642;7.668;2022-12-24T14:05:18;10.30;;;3.53;;
22421;SDS011;11378;51.642;7.668;2022-12-24T14:07:47;8.77;;;3.45;;
22421;SDS011;11378;51.642;7.668;2022-12-24T14:10:24;12.63;;;3.33;;
22421;SDS011;11378;51.642;7.668;2022-12-24T14:12:51;8.25;;;3.25;;
22421;SDS011;11378;51.642;7.668;2022-12-24T14:18:03;9.77;;;3.60;;
22421;SDS011;11378;51.642;7.668;2022-12-24T14:20:30;9.82;;;3.80;;
22421;SDS011;11378;51.642;7.668;2022-12-24T14:22:57;8.00;;;3.15;;
22421;SDS011;11378;51.642;7.668;2022-12-24T14:25:23;8.80;;;3.80;;
22421;SDS011;11378;51.642;7.668;2022-12-24T14:27:51;10.73;;;3.70;;
22421;SDS011;11378;51.642;7.668;2022-12-24T14:30:22;10.10;;;3.67;;
22421;SDS011;11378;51.642;7.668;2022-12-24T14:32:49;9.13;;;3.50;;
22421;SDS011;11378;51.642;7.668;2022-12-24T14:35:21;8.70;;;3.10;;
22421;SDS011;11378;51.642;7.668;2022-12-24T14:37:56;10.10;;;3.83;;
22421;SDS011;11378;51.642;7.668;2022-12-24T14:43:33;7.20;;;3.20;;
22421;SDS011;11378;51.642;7.668;2022-12-24T14:46:15;9.32;;;3.53;;
22421;SDS011;11378;51.642;7.668;2022-12-24T14:48:47;7.88;;;3.45;;
22421;SDS011;11378;51.642;7.668;2022-12-24T14:54:12;6.22;;;2.88;;
22421;SDS011;11378;51.642;7.668;2022-12-24T14:59:16;6.22;;;2.95;;
22421;SDS011;11378;51.642;7.668;2022-12-24T15:01:43;6.22;;;3.20;;
22421;SDS011;11378;51.642;7.668;2022-12-24T15:06:45;6.30;;;3.08;;
22421;SDS011;11378;51.642;7.668;2022-12-24T15:09:16;9.07;;;3.55;;
22421;SDS011;11378;51.642;7.668;2022-12-24T15:11:44;9.52;;;3.20;;
22421;SDS011;11378;51.642;7.668;2022-12-24T15:14:12;7.50;;;3.50;;
22421;SDS011;11378;51.642;7.668;2022-12-24T15:16:38;8.80;;;3.30;;
22421;SDS011;11378;51.642;7.668;2022-12-24T15:19:17;10.80;;;4.10;;
22421;SDS011;11378;51.642;7.668;2022-12-24T15:21:45;10.23;;;3.38;;
22421;SDS011;11378;51.642;7.668;2022-12-24T15:24:25;7.63;;;3.83;;
22421;SDS011;11378;51.642;7.668;2022-12-24T15:26:51;7.53;;;3.67;;
22421;SDS011;11378;51.642;7.668;2022-12-24T15:29:22;14.25;;;3.80;;
22421;SDS011;11378;51.642;7.668;2022-12-24T15:31:52;10.98;;;3.38;;
22421;SDS011;11378;51.642;7.668;2022-12-24T15:35:01;7.53;;;3.22;;
22421;SDS011;11378;51.642;7.668;2022-12-24T15:39:38;8.05;;;2.75;;
22421;SDS011;11378;51.642;7.668;2022-12-24T15:42:06;7.97;;;3.67;;
22421;SDS011;11378;51.642;7.668;2022-12-24T15:44:39;6.88;;;3.38;;
22421;SDS011;11378;51.642;7.668;2022-12-24T15:47:07;8.77;;;3.38;;
22421;SDS011;11378;51.642;7.668;2022-12-24T15:49:34;6.85;;;3.20;;
22421;SDS011;11378;51.642;7.668;2022-12-24T15:52:05;11.82;;;3.38;;
22421;SDS011;11378;51.642;7.668;2022-12-24T15:54:33;10.13;;;3.60;;
22421;SDS011;11378;51.642;7.668;2022-12-24T15:57:13;7.82;;;3.45;;
22421;SDS011;11378;51.642;7.668;2022-12-24T15:59:42;6.53;;;3.28;;
22421;SDS011;11378;51.642;7.668;2022-12-24T16:07:58;6.50;;;3.38;;
22421;SDS011;11378;51.642;7.668;2022-12-24T16:10:34;7.22;;;3.72;;
22421;SDS011;11378;51.642;7.668;2022-12-24T16:13:09;8.43;;;3.40;;
22421;SDS011;11378;51.642;7.668;2022-12-24T16:15:40;9.02;;;3.78;;
22421;SDS011;11378;51.642;7.668;2022-12-24T16:18:14;10.52;;;3.85;;
22421;SDS011;11378;51.642;7.668;2022-12-24T16:20:44;11.00;;;4.50;;
22421;SDS011;11378;51.642;7.668;2022-12-24T16:23:15;8.43;;;3.85;;
22421;SDS011;11378;51.642;7.668;2022-12-24T16:25:41;8.32;;;3.55;;
22421;SDS011;11378;51.642;7.668;2022-12-24T16:28:10;8.35;;;3.50;;
22421;SDS011;11378;51.642;7.668;2022-12-24T16:30:36;14.07;;;4.05;;
22421;SDS011;11378;51.642;7.668;2022-12-24T16:33:03;6.43;;;3.22;;
22421;SDS011;11378;51.642;7.668;2022-12-24T16:35:30;8.70;;;3.28;;
22421;SDS011;11378;51.642;7.668;2022-12-24T16:37:58;8.45;;;3.65;;
22421;SDS011;11378;51.642;7.668;2022-12-24T16:40:24;7.25;;;4.00;;
22421;SDS011;11378;51.642;7.668;2022-12-24T16:42:51;9.88;;;3.15;;
22421;SDS011;11378;51.642;7.668;2022-12-24T16:45:35;6.88;;;3.15;;